DESBT EDHL-EDDH
Flight info
| Callsign | DESBT |
|---|---|
| Flight time | 0h 15m |
| Altitude | 6000 |
| Route | RAMAR5H RAMAR DCT RARUP RARUP3P |
| Aircraft | P28A/L-SDGRY/S |
Departure
| Time | 2026-04-24 11:15 |
|---|---|
| Airport | Lübeck Blankensee Airport (EDHL) |
Arrival
| Time | 2026-04-24 11:30 |
|---|---|
| Airport | Hamburg Helmut Schmidt Airport (EDDH) |
| Time | Latitude | Longitude | Altitude | Speed | Heading |
|---|---|---|---|---|---|
| 2026-04-24 11:05 | 53.80552 | 10.70461 | 56 ft | 0 kts | 134° |
| 2026-04-24 11:10 | 53.80552 | 10.70462 | 56 ft | 1 kts | 110° |
| 2026-04-24 11:11 | 53.80569 | 10.70462 | 56 ft | 7 kts | 359° |
| 2026-04-24 11:11 | 53.80607 | 10.70428 | 56 ft | 8 kts | 283° |
| 2026-04-24 11:11 | 53.80565 | 10.70335 | 56 ft | 14 kts | 211° |
| 2026-04-24 11:11 | 53.80475 | 10.70405 | 56 ft | 15 kts | 147° |
| 2026-04-24 11:12 | 53.80469 | 10.70564 | 56 ft | 18 kts | 71° |
| 2026-04-24 11:12 | 53.80517 | 10.70803 | 56 ft | 28 kts | 71° |
| 2026-04-24 11:12 | 53.80577 | 10.71119 | 56 ft | 0 kts | 71° |
| 2026-04-24 11:12 | 53.80612 | 10.71314 | 56 ft | 32 kts | 76° |
| 2026-04-24 11:13 | 53.80657 | 10.71585 | 56 ft | 17 kts | 90° |
| 2026-04-24 11:13 | 53.80622 | 10.71774 | 56 ft | 19 kts | 112° |
| 2026-04-24 11:13 | 53.80566 | 10.71998 | 55 ft | 11 kts | 111° |
| 2026-04-24 11:13 | 53.80545 | 10.72010 | 55 ft | 0 kts | 256° |
| 2026-04-24 11:14 | 53.80541 | 10.71984 | 55 ft | 18 kts | 257° |
| 2026-04-24 11:14 | 53.80440 | 10.71445 | 72 ft | 72 kts | 255° |
| 2026-04-24 11:14 | 53.80277 | 10.70526 | 298 ft | 87 kts | 258° |
| 2026-04-24 11:14 | 53.80394 | 10.69524 | 585 ft | 94 kts | 304° |
| 2026-04-24 11:15 | 53.80909 | 10.68712 | 830 ft | 103 kts | 310° |
| 2026-04-24 11:15 | 53.81433 | 10.67817 | 1115 ft | 112 kts | 310° |
| 2026-04-24 11:15 | 53.81985 | 10.66831 | 1324 ft | 126 kts | 309° |
| 2026-04-24 11:15 | 53.82591 | 10.65710 | 1568 ft | 130 kts | 309° |
| 2026-04-24 11:16 | 53.83188 | 10.64586 | 1835 ft | 127 kts | 309° |
| 2026-04-24 11:16 | 53.83768 | 10.63482 | 2088 ft | 124 kts | 309° |
| 2026-04-24 11:16 | 53.84416 | 10.62535 | 2336 ft | 123 kts | 319° |
| 2026-04-24 11:16 | 53.85069 | 10.61610 | 2600 ft | 122 kts | 320° |
| 2026-04-24 11:17 | 53.85723 | 10.60689 | 2850 ft | 122 kts | 320° |
| 2026-04-24 11:17 | 53.86387 | 10.59755 | 3009 ft | 130 kts | 320° |
| 2026-04-24 11:17 | 53.87106 | 10.58748 | 3018 ft | 139 kts | 321° |
| 2026-04-24 11:17 | 53.87858 | 10.57696 | 3012 ft | 141 kts | 321° |
| 2026-04-24 11:18 | 53.88609 | 10.56645 | 3014 ft | 139 kts | 321° |
| 2026-04-24 11:18 | 53.89343 | 10.55612 | 3013 ft | 136 kts | 320° |
| 2026-04-24 11:18 | 53.89825 | 10.54270 | 2997 ft | 137 kts | 285° |
| 2026-04-24 11:18 | 53.89638 | 10.52698 | 2998 ft | 143 kts | 245° |
| 2026-04-24 11:19 | 53.88985 | 10.51405 | 3010 ft | 145 kts | 233° |
| 2026-04-24 11:19 | 53.88540 | 10.50568 | 3009 ft | 144 kts | 235° |
| 2026-04-24 11:19 | 53.87885 | 10.49272 | 3001 ft | 144 kts | 237° |
| 2026-04-24 11:19 | 53.87245 | 10.47977 | 3005 ft | 143 kts | 236° |
| 2026-04-24 11:20 | 53.86399 | 10.46254 | 3004 ft | 138 kts | 237° |
| 2026-04-24 11:20 | 53.85989 | 10.45417 | 3004 ft | 141 kts | 236° |
| 2026-04-24 11:20 | 53.85355 | 10.44122 | 3009 ft | 144 kts | 238° |
| 2026-04-24 11:20 | 53.84708 | 10.42805 | 3009 ft | 146 kts | 236° |
| 2026-04-24 11:21 | 53.84057 | 10.41482 | 3017 ft | 146 kts | 236° |
| 2026-04-24 11:21 | 53.83404 | 10.40154 | 2999 ft | 146 kts | 237° |
| 2026-04-24 11:21 | 53.82750 | 10.38821 | 3003 ft | 148 kts | 236° |
| 2026-04-24 11:21 | 53.82093 | 10.37488 | 2997 ft | 146 kts | 237° |
| 2026-04-24 11:22 | 53.81482 | 10.36254 | 2999 ft | 147 kts | 236° |
| 2026-04-24 11:22 | 53.80825 | 10.34935 | 2996 ft | 147 kts | 236° |
| 2026-04-24 11:22 | 53.80169 | 10.33623 | 2997 ft | 146 kts | 237° |
| 2026-04-24 11:22 | 53.79515 | 10.32311 | 3000 ft | 146 kts | 235° |
| 2026-04-24 11:23 | 53.78868 | 10.31008 | 2997 ft | 144 kts | 236° |
| 2026-04-24 11:23 | 53.78235 | 10.29739 | 3008 ft | 143 kts | 236° |
| 2026-04-24 11:23 | 53.77589 | 10.28444 | 3003 ft | 145 kts | 236° |
| 2026-04-24 11:23 | 53.76941 | 10.27129 | 3009 ft | 145 kts | 237° |
| 2026-04-24 11:24 | 53.76314 | 10.25807 | 3013 ft | 144 kts | 237° |
| 2026-04-24 11:24 | 53.75679 | 10.24506 | 3015 ft | 143 kts | 237° |
| 2026-04-24 11:24 | 53.75045 | 10.23214 | 3013 ft | 142 kts | 237° |
| 2026-04-24 11:24 | 53.74409 | 10.21943 | 3012 ft | 142 kts | 236° |
| 2026-04-24 11:25 | 53.73774 | 10.20676 | 3013 ft | 140 kts | 237° |
| 2026-04-24 11:25 | 53.73178 | 10.19370 | 3010 ft | 140 kts | 239° |
| 2026-04-24 11:25 | 53.72605 | 10.18048 | 3011 ft | 139 kts | 239° |
| 2026-04-24 11:25 | 53.72038 | 10.16723 | 3012 ft | 140 kts | 239° |
| 2026-04-24 11:26 | 53.71471 | 10.15393 | 3018 ft | 140 kts | 240° |
| 2026-04-24 11:26 | 53.70891 | 10.14029 | 2871 ft | 148 kts | 240° |
| 2026-04-24 11:26 | 53.70282 | 10.12599 | 2703 ft | 151 kts | 240° |
| 2026-04-24 11:26 | 53.69668 | 10.11162 | 2529 ft | 151 kts | 242° |
| 2026-04-24 11:27 | 53.69043 | 10.09743 | 2373 ft | 151 kts | 232° |
| 2026-04-24 11:27 | 53.68183 | 10.08779 | 2235 ft | 141 kts | 218° |
| 2026-04-24 11:27 | 53.67415 | 10.07827 | 1524 ft | 136 kts | 234° |
| 2026-04-24 11:27 | 53.66811 | 10.06594 | 1096 ft | 129 kts | 237° |
| 2026-04-24 11:28 | 53.66284 | 10.05473 | 790 ft | 120 kts | 238° |
| 2026-04-24 11:28 | 53.65774 | 10.04437 | 696 ft | 109 kts | 233° |
| 2026-04-24 11:28 | 53.65331 | 10.03561 | 576 ft | 90 kts | 239° |
| 2026-04-24 11:28 | 53.64960 | 10.02752 | 459 ft | 88 kts | 244° |
| 2026-04-24 11:29 | 53.64555 | 10.01906 | 363 ft | 93 kts | 238° |
| 2026-04-24 11:29 | 53.64150 | 10.01090 | 255 ft | 90 kts | 237° |
| 2026-04-24 11:29 | 53.63749 | 10.00272 | 150 ft | 88 kts | 237° |
| 2026-04-24 11:29 | 53.63376 | 9.99527 | 46 ft | 68 kts | 240° |
| 2026-04-24 11:30 | 53.63144 | 9.99051 | 41 ft | 41 kts | 232° |
| 2026-04-24 11:30 | 53.62981 | 9.98704 | 40 ft | 35 kts | 232° |
| 2026-04-24 11:30 | 53.62799 | 9.98484 | 38 ft | 30 kts | 194° |
| 2026-04-24 11:30 | 53.62704 | 9.98532 | 41 ft | 9 kts | 99° |
| 2026-04-24 11:31 | 53.62736 | 9.98644 | 41 ft | 11 kts | 53° |
| 2026-04-24 11:31 | 53.62760 | 9.98697 | 41 ft | 2 kts | 91° |
| 2026-04-24 11:31 | 53.62718 | 9.98752 | 41 ft | 11 kts | 128° |
| 2026-04-24 11:31 | 53.62707 | 9.98787 | 41 ft | 6 kts | 299° |
| 2026-04-24 11:32 | 53.62742 | 9.98656 | 41 ft | 12 kts | 232° |
| 2026-04-24 11:32 | 53.62680 | 9.98679 | 41 ft | 6 kts | 149° |
| 2026-04-24 11:32 | 53.62611 | 9.98743 | 41 ft | 7 kts | 111° |
| 2026-04-24 11:32 | 53.62611 | 9.98777 | 41 ft | 6 kts | 72° |
| 2026-04-24 11:33 | 53.62618 | 9.98798 | 41 ft | 0 kts | 64° |